createdAt,value
2017-06-02T00:02:31.000Z,1011.661
2017-06-02T00:12:31.000Z,1011.55
2017-06-02T00:22:31.000Z,1011.418
2017-06-02T00:32:31.000Z,1011.318
2017-06-02T00:42:31.000Z,1011.221
2017-06-02T00:52:31.000Z,1011.126
2017-06-02T01:02:32.000Z,1011.136
2017-06-02T01:12:32.000Z,1011.056
2017-06-02T01:22:32.000Z,1011.058
2017-06-02T01:32:32.000Z,1011.043
2017-06-02T01:42:32.000Z,1010.963
2017-06-02T01:52:32.000Z,1010.863
2017-06-02T02:02:32.000Z,1010.851
2017-06-02T02:12:32.000Z,1010.81
2017-06-02T02:22:32.000Z,1010.807
2017-06-02T02:32:32.000Z,1010.79
2017-06-02T02:42:32.000Z,1010.76
2017-06-02T02:52:32.000Z,1010.749
2017-06-02T03:02:32.000Z,1010.7
2017-06-02T03:12:32.000Z,1010.631
2017-06-02T03:22:32.000Z,1010.56
2017-06-02T03:32:36.000Z,1010.534
2017-06-02T03:42:32.000Z,1010.463
2017-06-02T03:52:32.000Z,1010.543
2017-06-02T04:02:32.000Z,1010.538
2017-06-02T04:12:32.000Z,1010.455
2017-06-02T04:22:32.000Z,1010.404
2017-06-02T04:32:32.000Z,1010.512
2017-06-02T04:42:32.000Z,1010.475
2017-06-02T04:52:32.000Z,1010.413
2017-06-02T05:02:32.000Z,1010.443
2017-06-02T05:12:32.000Z,1010.404
2017-06-02T05:22:32.000Z,1010.323
2017-06-02T05:32:32.000Z,1010.396
2017-06-02T05:42:32.000Z,1010.429
2017-06-02T05:52:32.000Z,1010.331
2017-06-02T06:02:32.000Z,1010.314
2017-06-02T06:12:32.000Z,1010.314
2017-06-02T06:22:32.000Z,1010.347
2017-06-02T06:32:32.000Z,1010.269
2017-06-02T06:42:32.000Z,1010.211
2017-06-02T06:52:32.000Z,1010.22
2017-06-02T07:02:32.000Z,1010.158
2017-06-02T07:12:32.000Z,1010.145
2017-06-02T07:22:32.000Z,1010.118
2017-06-02T07:32:32.000Z,1010.071
2017-06-02T07:42:32.000Z,1010.096
2017-06-02T07:52:32.000Z,1010.035
2017-06-02T08:02:32.000Z,1010.018
2017-06-02T08:12:32.000Z,1010.022
2017-06-02T08:22:33.000Z,1010.062
2017-06-02T08:32:32.000Z,1010.062
2017-06-02T08:42:32.000Z,1009.99
2017-06-02T08:52:33.000Z,1009.979
2017-06-02T09:02:33.000Z,1010.039
2017-06-02T09:12:32.000Z,1010.048
2017-06-02T09:22:33.000Z,1010.024
2017-06-02T09:32:33.000Z,1009.961
2017-06-02T09:42:33.000Z,1009.887
2017-06-02T09:52:33.000Z,1009.901
2017-06-02T10:02:33.000Z,1009.86
2017-06-02T10:12:33.000Z,1009.767
2017-06-02T10:22:33.000Z,1009.634
2017-06-02T10:32:33.000Z,1009.635
2017-06-02T10:42:33.000Z,1009.554
2017-06-02T10:52:33.000Z,1009.471
2017-06-02T11:02:33.000Z,1009.332
2017-06-02T11:12:33.000Z,1009.202
2017-06-02T11:22:33.000Z,1009.263
2017-06-02T11:32:33.000Z,1009.152
2017-06-02T11:42:33.000Z,1009.073
2017-06-02T11:52:34.000Z,1008.977
2017-06-02T12:02:33.000Z,1008.92
2017-06-02T12:12:33.000Z,1008.865
2017-06-02T12:22:33.000Z,1008.823
2017-06-02T12:32:35.000Z,1008.84
2017-06-02T12:42:33.000Z,1008.738
2017-06-02T12:52:33.000Z,1008.671
2017-06-02T13:02:33.000Z,1008.54
2017-06-02T13:12:33.000Z,1008.412
2017-06-02T13:22:33.000Z,1008.371
2017-06-02T13:32:33.000Z,1008.308
2017-06-02T13:42:33.000Z,1008.199
2017-06-02T13:52:33.000Z,1008.092
2017-06-02T14:02:33.000Z,1008.025
2017-06-02T14:12:33.000Z,1007.939
2017-06-02T14:22:33.000Z,1007.9
2017-06-02T14:32:33.000Z,1007.729
2017-06-02T14:42:33.000Z,1007.689
2017-06-02T14:52:33.000Z,1007.585
2017-06-02T15:02:33.000Z,1007.618
2017-06-02T15:12:33.000Z,1007.592
2017-06-02T15:22:33.000Z,1007.489
2017-06-02T15:32:33.000Z,1007.414
2017-06-02T15:42:33.000Z,1007.293
2017-06-02T15:52:33.000Z,1007.249
2017-06-02T16:02:33.000Z,1007.242
2017-06-02T16:12:33.000Z,1007.216
2017-06-02T16:22:34.000Z,1007.093
2017-06-02T19:49:51.000Z,1007.008
2017-06-02T19:57:11.000Z,1006.992
2017-06-02T20:07:12.000Z,1007.091
2017-06-02T20:17:11.000Z,1007.191
2017-06-02T20:27:12.000Z,1007.344
2017-06-02T20:37:11.000Z,1007.22
2017-06-02T20:47:12.000Z,1007.252
2017-06-02T20:57:12.000Z,1007.391
2017-06-02T21:07:12.000Z,1007.365
2017-06-02T21:17:12.000Z,1007.267
2017-06-02T21:27:12.000Z,1007.14
2017-06-02T21:37:12.000Z,1007.136
2017-06-02T21:47:12.000Z,1006.985
2017-06-02T21:57:12.000Z,1007.036
2017-06-02T22:07:12.000Z,1007.006
2017-06-02T22:17:12.000Z,1006.882
2017-06-02T22:27:12.000Z,1006.74
2017-06-02T22:37:12.000Z,1006.612
2017-06-02T22:47:12.000Z,1006.676
2017-06-02T22:57:12.000Z,1006.623
2017-06-02T23:07:12.000Z,1006.651
2017-06-02T23:17:12.000Z,1006.652
2017-06-02T23:27:13.000Z,1006.615
2017-06-02T23:37:12.000Z,1006.665
2017-06-02T23:47:12.000Z,1006.634
2017-06-02T23:57:12.000Z,1006.603
